createdAt,value
2023-03-07T00:00:36.409Z,99.99
2023-03-07T00:01:36.383Z,99.99
2023-03-07T00:02:36.432Z,99.99
2023-03-07T00:03:36.322Z,99.99
2023-03-07T00:04:36.276Z,99.99
2023-03-07T00:05:36.223Z,99.99
2023-03-07T00:06:36.186Z,99.99
2023-03-07T00:07:36.211Z,99.99
2023-03-07T00:08:36.105Z,99.99
2023-03-07T00:09:36.070Z,99.99
2023-03-07T00:10:36.025Z,99.99
2023-03-07T00:11:35.982Z,99.99
2023-03-07T00:12:35.946Z,99.99
2023-03-07T00:13:35.967Z,99.99
2023-03-07T00:14:35.882Z,99.99
2023-03-07T00:15:35.824Z,99.99
2023-03-07T00:16:35.780Z,99.99
2023-03-07T00:17:35.741Z,99.99
2023-03-07T00:18:35.769Z,99.99
2023-03-07T00:19:35.673Z,99.99
2023-03-07T00:20:35.629Z,99.99
2023-03-07T00:21:35.591Z,99.99
2023-03-07T00:22:35.558Z,99.99
2023-03-07T00:23:35.504Z,99.99
2023-03-07T00:24:35.532Z,99.99
2023-03-07T00:25:35.434Z,99.99
2023-03-07T00:26:35.386Z,99.99
2023-03-07T00:27:35.350Z,99.99
2023-03-07T00:28:35.316Z,99.99
2023-03-07T00:29:35.278Z,99.99
2023-03-07T00:30:35.307Z,99.99
2023-03-07T00:31:35.240Z,99.99
2023-03-07T00:32:35.194Z,99.99
2023-03-07T00:33:35.115Z,99.99
2023-03-07T00:34:35.095Z,99.99
2023-03-07T00:35:35.046Z,99.99
2023-03-07T00:36:35.076Z,99.99
2023-03-07T00:37:34.959Z,99.99
2023-03-07T00:38:34.915Z,99.99
2023-03-07T00:39:35.961Z,99.99
2023-03-07T00:40:34.837Z,99.99
2023-03-07T00:41:34.828Z,99.99
2023-03-07T00:42:34.830Z,99.99
2023-03-07T00:43:34.723Z,99.99
2023-03-07T00:44:34.746Z,99.99
2023-03-07T00:45:34.672Z,99.99
2023-03-07T00:46:34.608Z,99.99
2023-03-07T00:47:34.563Z,99.99
2023-03-07T00:48:34.692Z,99.99
2023-03-07T00:49:34.485Z,99.99
2023-03-07T00:50:34.450Z,99.99
2023-03-07T00:51:34.399Z,99.99
2023-03-07T00:52:34.370Z,99.99
2023-03-07T00:53:34.325Z,99.99
2023-03-07T00:54:34.358Z,99.99
2023-03-07T00:55:34.245Z,99.99
2023-03-07T00:56:34.210Z,99.99
2023-03-07T00:57:34.167Z,99.99
2023-03-07T00:58:34.127Z,99.99
2023-03-07T00:59:34.093Z,99.99
2023-03-07T01:00:34.111Z,99.99
2023-03-07T01:01:34.010Z,99.99
2023-03-07T01:02:33.994Z,99.99
2023-03-07T01:03:33.939Z,99.99
2023-03-07T01:04:34.043Z,99.99
2023-03-07T01:05:33.856Z,99.99
2023-03-07T01:06:33.819Z,99.99
2023-03-07T01:07:33.772Z,99.99
2023-03-07T01:08:33.737Z,99.99
2023-03-07T01:09:33.757Z,99.99
2023-03-07T01:10:33.656Z,99.99
2023-03-07T01:11:33.614Z,99.99
2023-03-07T01:12:33.589Z,99.99
2023-03-07T01:13:33.545Z,99.99
2023-03-07T01:14:33.530Z,99.99
2023-03-07T01:15:33.513Z,99.99
2023-03-07T01:16:33.470Z,99.99
2023-03-07T01:17:33.399Z,99.99
2023-03-07T01:18:33.343Z,99.99
2023-03-07T01:19:33.318Z,99.99
2023-03-07T01:20:33.338Z,99.99
2023-03-07T01:21:33.277Z,99.99
2023-03-07T01:22:33.204Z,99.99
2023-03-07T01:23:33.163Z,99.99
2023-03-07T01:24:33.106Z,99.99
2023-03-07T01:25:33.074Z,99.99
2023-03-07T01:26:33.105Z,99.99
2023-03-07T01:27:32.987Z,99.99
2023-03-07T01:28:32.941Z,99.99
2023-03-07T01:29:32.934Z,99.99
2023-03-07T01:30:32.877Z,99.99
2023-03-07T01:31:32.891Z,99.99
2023-03-07T01:32:33.599Z,99.99
2023-03-07T01:33:32.769Z,99.99
2023-03-07T01:34:32.727Z,99.99
2023-03-07T01:35:32.769Z,99.99
2023-03-07T01:36:32.675Z,99.99
2023-03-07T01:37:32.653Z,99.99
2023-03-07T01:38:32.557Z,99.99
2023-03-07T01:39:32.512Z,99.99
2023-03-07T01:40:32.478Z,99.99
2023-03-07T01:41:32.495Z,99.99
2023-03-07T01:42:32.418Z,99.99
2023-03-07T01:43:32.420Z,99.99
2023-03-07T01:44:32.318Z,99.99
2023-03-07T01:45:32.357Z,99.99
2023-03-07T01:46:32.249Z,99.99
2023-03-07T01:47:32.281Z,99.99
2023-03-07T01:48:32.168Z,99.99
2023-03-07T01:49:32.242Z,99.99
2023-03-07T01:50:32.081Z,99.99
2023-03-07T01:51:32.041Z,99.99
2023-03-07T01:52:32.034Z,99.99
2023-03-07T01:53:32.031Z,99.99
2023-03-07T01:54:31.933Z,99.99
2023-03-07T01:55:31.961Z,99.99
2023-03-07T01:56:31.844Z,99.99
2023-03-07T01:57:31.815Z,99.99
2023-03-07T01:58:31.775Z,99.99
2023-03-07T01:59:31.734Z,99.99
2023-03-07T02:00:31.693Z,99.99
2023-03-07T02:01:31.788Z,99.99
2023-03-07T02:02:31.614Z,99.99
2023-03-07T02:03:31.575Z,99.99
2023-03-07T02:04:31.556Z,99.99
2023-03-07T02:05:31.496Z,99.99
2023-03-07T02:06:31.453Z,99.99
2023-03-07T02:07:31.488Z,99.99
2023-03-07T02:08:31.401Z,99.99
2023-03-07T02:09:31.417Z,99.99
2023-03-07T02:10:31.304Z,99.99
2023-03-07T02:11:31.260Z,99.99
2023-03-07T02:12:31.229Z,99.99
2023-03-07T02:13:31.246Z,99.99
2023-03-07T02:14:31.176Z,99.99
2023-03-07T02:15:31.101Z,99.99
2023-03-07T02:16:31.064Z,99.99
2023-03-07T02:17:31.044Z,99.99
2023-03-07T02:18:30.988Z,99.99
2023-03-07T02:19:31.008Z,99.99
2023-03-07T02:20:30.930Z,99.99
2023-03-07T02:21:30.901Z,99.99
2023-03-07T02:22:30.838Z,99.99
2023-03-07T02:23:31.582Z,99.99
2023-03-07T02:24:30.753Z,99.99
2023-03-07T02:25:30.843Z,99.99
2023-03-07T02:26:30.698Z,99.99
2023-03-07T02:27:30.642Z,99.99
2023-03-07T02:28:31.588Z,99.99
2023-03-07T02:29:30.563Z,99.99
2023-03-07T02:30:30.618Z,99.99
2023-03-07T02:31:30.549Z,99.99
2023-03-07T02:32:30.584Z,99.99
2023-03-07T02:33:30.407Z,99.99
2023-03-07T02:34:30.367Z,99.99
2023-03-07T02:35:30.363Z,99.99
2023-03-07T02:36:30.389Z,99.99
2023-03-07T02:37:30.306Z,99.99
2023-03-07T02:38:30.230Z,99.99
2023-03-07T02:39:30.197Z,99.99
2023-03-07T02:40:30.709Z,99.99
2023-03-07T02:41:30.106Z,99.99
2023-03-07T02:42:30.065Z,99.99
2023-03-07T02:43:30.095Z,99.99
2023-03-07T02:44:29.981Z,99.99
2023-03-07T02:45:29.947Z,99.99
2023-03-07T02:46:29.957Z,99.99
2023-03-07T02:47:29.866Z,99.99
2023-03-07T02:48:29.866Z,99.99
2023-03-07T02:49:29.851Z,99.99
2023-03-07T02:50:29.752Z,99.99
2023-03-07T02:51:29.710Z,99.99
2023-03-07T02:52:29.670Z,99.99
2023-03-07T02:53:29.651Z,99.99
2023-03-07T02:54:29.682Z,99.99
2023-03-07T02:55:29.624Z,99.99
2023-03-07T02:56:29.531Z,99.99
2023-03-07T02:57:29.481Z,99.99
2023-03-07T02:58:29.454Z,99.99
2023-03-07T02:59:29.422Z,99.99
2023-03-07T03:00:29.368Z,99.99
2023-03-07T03:01:29.428Z,99.99
2023-03-07T03:02:29.353Z,99.99
2023-03-07T03:03:29.249Z,99.99
2023-03-07T03:04:29.284Z,99.99
2023-03-07T03:05:29.175Z,99.99
2023-03-07T03:06:29.144Z,99.99
2023-03-07T03:07:29.157Z,99.99
2023-03-07T03:08:29.055Z,99.99
2023-03-07T03:09:29.025Z,99.99
2023-03-07T03:10:28.993Z,99.99
2023-03-07T03:11:28.952Z,99.99
2023-03-07T03:12:29.020Z,99.99
2023-03-07T03:13:28.870Z,99.99
2023-03-07T03:14:28.872Z,99.99
2023-03-07T03:15:28.807Z,99.99
2023-03-07T03:16:28.808Z,99.99
2023-03-07T03:17:28.723Z,99.99
2023-03-07T03:18:28.752Z,99.99
2023-03-07T03:19:28.638Z,99.99
2023-03-07T03:20:28.596Z,99.99
2023-03-07T03:21:28.565Z,99.99
2023-03-07T03:22:28.532Z,99.99
2023-03-07T03:23:28.481Z,99.99
2023-03-07T03:24:28.517Z,99.99
2023-03-07T03:25:28.414Z,99.99
2023-03-07T03:26:28.388Z,99.99
2023-03-07T03:27:28.339Z,99.99
2023-03-07T03:28:28.287Z,99.99
2023-03-07T03:29:28.251Z,99.99
2023-03-07T03:30:28.265Z,99.99
2023-03-07T03:31:28.216Z,99.99
2023-03-07T03:32:28.189Z,99.99
2023-03-07T03:33:28.100Z,99.99
2023-03-07T03:34:28.054Z,99.99
2023-03-07T03:35:28.020Z,99.99
2023-03-07T03:36:28.263Z,99.99
2023-03-07T03:37:27.943Z,99.99
2023-03-07T03:38:27.910Z,99.99
2023-03-07T03:39:27.885Z,99.99
2023-03-07T03:40:27.827Z,99.99
2023-03-07T03:41:27.791Z,99.99
2023-03-07T03:42:27.812Z,99.99
2023-03-07T03:43:27.710Z,99.99
2023-03-07T03:44:27.702Z,99.99
2023-03-07T03:45:27.633Z,99.99
2023-03-07T03:46:27.645Z,99.99
2023-03-07T03:47:27.554Z,99.99
2023-03-07T03:48:27.587Z,99.99
2023-03-07T03:49:27.479Z,99.99
2023-03-07T03:50:27.491Z,99.99
2023-03-07T03:51:27.404Z,99.99
2023-03-07T03:52:27.363Z,99.99
2023-03-07T03:53:27.313Z,99.99
2023-03-07T03:54:27.289Z,99.99
2023-03-07T03:55:27.321Z,99.99
2023-03-07T03:56:27.204Z,99.99
2023-03-07T03:57:27.172Z,99.99
2023-03-07T03:58:27.137Z,99.99
2023-03-07T03:59:27.098Z,99.99
2023-03-07T04:00:27.048Z,99.99
2023-03-07T04:01:27.309Z,99.99
2023-03-07T04:02:27.099Z,99.99
2023-03-07T04:03:26.937Z,99.99
2023-03-07T04:04:26.906Z,99.99
2023-03-07T04:05:26.863Z,99.99
2023-03-07T04:06:26.818Z,99.99
2023-03-07T04:07:26.855Z,99.99
2023-03-07T04:08:26.744Z,99.99
2023-03-07T04:09:36.267Z,99.99
2023-03-07T04:10:26.662Z,99.99
2023-03-07T04:11:26.647Z,99.99
2023-03-07T04:12:26.581Z,99.99
2023-03-07T04:13:27.241Z,99.99
2023-03-07T04:14:26.537Z,99.99
2023-03-07T04:15:26.471Z,99.99
2023-03-07T04:16:26.478Z,99.99
2023-03-07T04:17:26.390Z,99.99
2023-03-07T04:18:27.205Z,99.99
2023-03-07T04:19:27.004Z,99.99
2023-03-07T04:20:26.277Z,99.99
2023-03-07T04:21:26.245Z,99.99
2023-03-07T04:22:26.202Z,99.99
2023-03-07T04:23:26.161Z,99.99
2023-03-07T04:24:26.124Z,99.99
2023-03-07T04:25:26.140Z,99.99
2023-03-07T04:26:26.053Z,99.99
2023-03-07T04:27:26.034Z,99.99
2023-03-07T04:28:25.963Z,99.99
2023-03-07T04:29:25.926Z,99.99
2023-03-07T04:30:25.894Z,99.99
2023-03-07T04:31:25.979Z,99.99
2023-03-07T04:32:25.841Z,99.99
2023-03-07T04:33:25.769Z,99.99
2023-03-07T04:34:25.733Z,99.99
2023-03-07T04:35:25.698Z,99.99
2023-03-07T04:36:26.632Z,99.99
2023-03-07T04:37:25.695Z,99.99
2023-03-07T04:38:25.597Z,99.99
2023-03-07T04:39:25.544Z,99.99
2023-03-07T04:40:25.511Z,99.99
2023-03-07T04:41:25.466Z,99.99
2023-03-07T04:42:25.479Z,99.99
2023-03-07T04:43:25.393Z,99.99
2023-03-07T04:44:25.352Z,99.99
2023-03-07T04:45:25.312Z,99.99
2023-03-07T04:46:25.282Z,99.99
2023-03-07T04:47:25.237Z,99.99
2023-03-07T04:48:25.249Z,99.99
2023-03-07T04:49:25.184Z,99.99
2023-03-07T04:50:25.120Z,99.99
2023-03-07T04:51:25.091Z,99.99
2023-03-07T04:52:25.042Z,99.99
2023-03-07T04:53:25.004Z,99.99
2023-03-07T04:54:25.011Z,99.99
2023-03-07T04:55:24.924Z,99.99
2023-03-07T04:56:24.882Z,99.99
2023-03-07T04:57:24.845Z,99.99
2023-03-07T04:58:24.806Z,99.99
2023-03-07T04:59:24.768Z,99.99
2023-03-07T05:00:24.788Z,99.99
2023-03-07T05:01:24.761Z,99.99
2023-03-07T05:02:24.676Z,99.99
2023-03-07T05:03:24.621Z,99.99
2023-03-07T05:04:24.637Z,99.99
2023-03-07T05:05:24.592Z,99.99
2023-03-07T05:06:24.498Z,99.99
2023-03-07T05:07:24.465Z,99.99
2023-03-07T05:08:24.420Z,99.99
2023-03-07T05:09:24.431Z,99.99
2023-03-07T05:10:24.348Z,99.99
2023-03-07T05:11:24.367Z,99.99
2023-03-07T05:12:24.270Z,99.99
2023-03-07T05:13:24.237Z,99.99
2023-03-07T05:14:24.212Z,99.99
2023-03-07T05:15:24.158Z,99.99
2023-03-07T05:16:24.174Z,99.99
2023-03-07T05:17:24.074Z,99.99
2023-03-07T05:18:24.037Z,99.99
2023-03-07T05:19:24.010Z,99.99
2023-03-07T05:20:23.952Z,99.99
2023-03-07T05:21:23.923Z,99.99
2023-03-07T05:22:23.965Z,99.99
2023-03-07T05:23:23.842Z,99.99
2023-03-07T05:24:23.799Z,99.99
2023-03-07T05:25:23.770Z,99.99
2023-03-07T05:26:23.732Z,99.99
2023-03-07T05:27:24.311Z,99.99
2023-03-07T05:28:23.700Z,99.99
2023-03-07T05:29:23.702Z,99.99
2023-03-07T05:30:23.573Z,99.99
2023-03-07T05:31:23.637Z,99.99
2023-03-07T05:32:23.556Z,99.99
2023-03-07T05:33:23.457Z,99.99
2023-03-07T05:34:23.423Z,99.99
2023-03-07T05:35:23.431Z,99.99
2023-03-07T05:36:23.332Z,99.99
2023-03-07T05:37:23.304Z,99.99
2023-03-07T05:38:23.273Z,99.99
2023-03-07T05:39:23.240Z,99.99
2023-03-07T05:40:24.193Z,99.99
2023-03-07T05:41:23.153Z,99.99
2023-03-07T05:42:23.104Z,99.99
2023-03-07T05:43:23.070Z,99.99
2023-03-07T05:44:23.746Z,99.99
2023-03-07T05:45:23.012Z,99.99
2023-03-07T05:46:23.118Z,99.99
2023-03-07T05:47:22.928Z,99.99
2023-03-07T05:48:22.871Z,99.99
2023-03-07T05:49:22.845Z,99.99
2023-03-07T05:50:22.813Z,99.99
2023-03-07T05:51:22.762Z,99.99
2023-03-07T05:52:22.799Z,99.99
2023-03-07T05:53:22.683Z,99.99
2023-03-07T05:54:22.655Z,99.99
2023-03-07T05:55:22.632Z,99.99
2023-03-07T05:56:22.565Z,99.99
2023-03-07T05:57:22.528Z,99.99
2023-03-07T05:58:22.555Z,99.99
2023-03-07T05:59:22.454Z,99.99
2023-03-07T06:00:22.416Z,99.99
2023-03-07T06:01:22.376Z,99.99
2023-03-07T06:02:22.377Z,99.99
2023-03-07T06:03:22.405Z,99.99
2023-03-07T06:04:22.307Z,99.99
2023-03-07T06:05:23.762Z,99.99
2023-03-07T06:06:22.182Z,99.99
2023-03-07T06:07:22.138Z,99.99
2023-03-07T06:08:22.098Z,99.99
2023-03-07T06:09:22.065Z,99.99
2023-03-07T06:10:22.086Z,99.99
2023-03-07T06:11:21.996Z,99.99
2023-03-07T06:12:21.948Z,99.99
2023-03-07T06:13:21.921Z,99.99
2023-03-07T06:14:21.959Z,99.99
2023-03-07T06:15:23.684Z,99.99
2023-03-07T06:16:21.872Z,99.99
2023-03-07T06:17:21.771Z,99.99
2023-03-07T06:18:21.722Z,99.99
2023-03-07T06:19:21.689Z,99.99
2023-03-07T06:20:21.650Z,99.99
2023-03-07T06:21:21.611Z,99.99
2023-03-07T06:22:21.617Z,99.99
2023-03-07T06:23:21.526Z,99.99
2023-03-07T06:24:21.493Z,99.99
2023-03-07T06:25:21.449Z,99.99
2023-03-07T06:26:21.425Z,99.99
2023-03-07T06:27:21.388Z,99.99
2023-03-07T06:28:21.381Z,99.99
2023-03-07T06:29:21.294Z,99.99
2023-03-07T06:30:24.145Z,99.99
2023-03-07T06:31:21.232Z,99.99
2023-03-07T06:32:21.215Z,99.99
2023-03-07T06:33:21.143Z,99.99
2023-03-07T06:34:21.172Z,99.99
2023-03-07T06:35:21.061Z,99.99
2023-03-07T06:36:21.032Z,99.99
2023-03-07T06:37:21.007Z,99.99
2023-03-07T06:38:21.805Z,99.99
2023-03-07T06:39:20.993Z,99.99
2023-03-07T06:40:20.986Z,99.99
2023-03-07T06:41:20.833Z,99.99
2023-03-07T06:42:20.812Z,99.99
2023-03-07T06:43:20.773Z,99.99
2023-03-07T06:44:20.724Z,99.99
2023-03-07T06:45:20.709Z,99.99
2023-03-07T06:46:20.712Z,99.99
2023-03-07T06:47:20.612Z,99.99
2023-03-07T06:48:20.566Z,99.99
2023-03-07T06:49:20.535Z,99.99
2023-03-07T06:50:26.639Z,99.99
2023-03-07T06:51:20.514Z,99.99
2023-03-07T06:52:20.432Z,99.99
2023-03-07T06:53:20.382Z,99.99
2023-03-07T06:54:20.355Z,99.99
2023-03-07T06:55:20.335Z,99.99
2023-03-07T06:56:20.272Z,99.99
2023-03-07T06:57:20.280Z,99.99
2023-03-07T06:58:20.199Z,99.99
2023-03-07T06:59:20.151Z,99.99
2023-03-07T07:00:20.115Z,99.99
2023-03-07T07:01:20.080Z,99.99
2023-03-07T07:02:20.137Z,99.99
2023-03-07T07:03:20.144Z,99.99
2023-03-07T07:04:19.964Z,99.99
2023-03-07T07:05:19.931Z,99.99
2023-03-07T07:06:19.884Z,99.99
2023-03-07T07:07:19.853Z,99.99
2023-03-07T07:08:19.806Z,99.99
2023-03-07T07:09:19.847Z,99.99
2023-03-07T07:10:19.726Z,99.99
2023-03-07T07:11:19.694Z,99.99
2023-03-07T07:12:19.655Z,99.99
2023-03-07T07:13:19.620Z,99.99
2023-03-07T07:14:19.579Z,99.95
2023-03-07T07:15:19.614Z,99.99
2023-03-07T07:16:19.523Z,99.95
2023-03-07T07:17:19.466Z,99.74
2023-03-07T07:18:19.423Z,99.99
2023-03-07T07:19:19.382Z,99.99
2023-03-07T07:20:19.359Z,99.99
2023-03-07T07:21:19.373Z,99.18
2023-03-07T07:22:19.275Z,99.59
2023-03-07T07:23:19.245Z,98.97
2023-03-07T07:24:19.207Z,98.93
2023-03-07T07:25:19.159Z,98.97
2023-03-07T07:26:20.646Z,99.34
2023-03-07T07:27:19.237Z,98.72
2023-03-07T07:28:19.052Z,98.51
2023-03-07T07:29:19.014Z,98.45
2023-03-07T07:30:18.981Z,99.33
2023-03-07T07:31:18.985Z,99.28
2023-03-07T07:32:19.132Z,99.28
2023-03-07T07:33:19.097Z,99.07
2023-03-07T07:34:18.832Z,99.85
2023-03-07T07:35:18.790Z,99.54
2023-03-07T07:36:18.744Z,99.99
2023-03-07T07:37:18.734Z,99.85
2023-03-07T07:38:18.676Z,99.85
2023-03-07T07:39:18.740Z,99.54
2023-03-07T07:40:18.604Z,99.59
2023-03-07T07:41:18.562Z,99.70
2023-03-07T07:42:18.531Z,99.80
2023-03-07T07:43:18.514Z,99.33
2023-03-07T07:44:18.465Z,99.22
2023-03-07T07:45:18.467Z,99.28
2023-03-07T07:46:18.458Z,99.49
2023-03-07T07:47:18.343Z,99.28
2023-03-07T07:48:18.299Z,99.18
2023-03-07T07:49:18.771Z,98.93
2023-03-07T07:50:18.226Z,99.24
2023-03-07T07:51:18.246Z,98.72
2023-03-07T07:52:18.178Z,98.41
2023-03-07T07:53:18.771Z,98.20
2023-03-07T07:54:18.086Z,98.10
2023-03-07T07:55:18.034Z,98.61
2023-03-07T07:56:18.002Z,98.61
2023-03-07T07:57:18.022Z,98.61
2023-03-07T07:58:17.933Z,98.82
2023-03-07T07:59:20.664Z,98.20
2023-03-07T08:00:17.856Z,98.26
2023-03-07T08:01:17.876Z,97.74
2023-03-07T08:02:17.892Z,97.38
2023-03-07T08:03:17.820Z,97.59
2023-03-07T08:04:17.728Z,97.22
2023-03-07T08:05:17.675Z,97.28
2023-03-07T08:06:19.848Z,97.59
2023-03-07T08:07:17.593Z,96.76
2023-03-07T08:08:17.555Z,96.76
2023-03-07T08:09:17.574Z,96.55
2023-03-07T08:10:17.495Z,97.07
2023-03-07T08:11:17.448Z,97.49
2023-03-07T08:12:17.408Z,97.17
2023-03-07T08:13:17.392Z,97.69
2023-03-07T08:14:17.403Z,97.28
2023-03-07T08:15:17.359Z,97.28
2023-03-07T08:16:17.361Z,96.34
2023-03-07T08:17:17.216Z,96.76
2023-03-07T08:18:17.180Z,96.51
2023-03-07T08:19:17.149Z,95.74
2023-03-07T08:20:17.114Z,95.12
2023-03-07T08:21:17.134Z,95.12
2023-03-07T08:22:17.042Z,94.81
2023-03-07T08:23:16.999Z,94.66
2023-03-07T08:24:17.790Z,94.87
2023-03-07T08:25:16.928Z,94.24
2023-03-07T08:26:16.909Z,94.10
2023-03-07T08:27:16.926Z,93.83
2023-03-07T08:28:16.816Z,94.20
2023-03-07T08:29:16.834Z,93.83
2023-03-07T08:30:16.752Z,93.68
2023-03-07T08:31:16.744Z,93.85
2023-03-07T08:32:16.695Z,93.12
2023-03-07T08:33:17.289Z,92.91
2023-03-07T08:34:16.613Z,92.67
2023-03-07T08:35:16.564Z,92.77
2023-03-07T08:36:16.542Z,92.15
2023-03-07T08:37:16.488Z,92.36
2023-03-07T08:38:16.454Z,92.19
2023-03-07T08:39:16.474Z,92.81
2023-03-07T08:40:16.386Z,92.50
2023-03-07T08:41:16.352Z,92.30
2023-03-07T08:42:16.393Z,92.50
2023-03-07T08:43:17.201Z,92.50
2023-03-07T08:44:16.248Z,93.02
2023-03-07T08:45:16.267Z,92.30
2023-03-07T08:46:16.235Z,92.76
2023-03-07T08:47:16.125Z,93.02
2023-03-07T08:48:16.092Z,92.50
2023-03-07T08:49:16.081Z,92.81
2023-03-07T08:50:16.025Z,92.61
2023-03-07T08:51:16.072Z,92.61
2023-03-07T08:52:15.937Z,92.50
2023-03-07T08:53:15.927Z,92.40
2023-03-07T08:54:15.865Z,92.61
2023-03-07T08:55:15.839Z,92.30
2023-03-07T08:56:15.830Z,92.09
2023-03-07T08:57:15.855Z,92.25
2023-03-07T08:58:15.752Z,92.57
2023-03-07T08:59:15.681Z,92.05
2023-03-07T09:00:15.680Z,91.94
2023-03-07T09:01:15.627Z,91.69
2023-03-07T09:02:15.590Z,90.77
2023-03-07T09:03:15.589Z,90.87
2023-03-07T09:04:15.539Z,90.77
2023-03-07T09:05:15.472Z,91.63
2023-03-07T09:06:15.485Z,91.28
2023-03-07T09:07:15.409Z,91.32
2023-03-07T09:08:15.430Z,91.38
2023-03-07T09:09:15.429Z,91.17
2023-03-07T09:10:15.275Z,91.17
2023-03-07T09:11:15.241Z,90.87
2023-03-07T09:12:15.207Z,90.87
2023-03-07T09:13:16.465Z,90.56
2023-03-07T09:14:15.139Z,91.28
2023-03-07T09:15:15.178Z,91.34
2023-03-07T09:16:15.157Z,90.37
2023-03-07T09:17:15.024Z,89.65
2023-03-07T09:18:15.039Z,89.86
2023-03-07T09:19:14.962Z,89.23
2023-03-07T09:20:14.918Z,89.34
2023-03-07T09:21:14.933Z,89.19
2023-03-07T09:22:14.851Z,88.89
2023-03-07T09:23:14.814Z,89.29
2023-03-07T09:24:14.794Z,88.57
2023-03-07T09:25:14.800Z,88.68
2023-03-07T09:26:14.720Z,89.19
2023-03-07T09:27:14.732Z,89.09
2023-03-07T09:28:14.635Z,88.53
2023-03-07T09:29:14.619Z,88.53
2023-03-07T09:30:14.607Z,88.12
2023-03-07T09:31:14.652Z,89.25
2023-03-07T09:32:14.541Z,89.25
2023-03-07T09:33:14.573Z,89.05
2023-03-07T09:34:14.424Z,88.43
2023-03-07T09:35:14.391Z,88.64
2023-03-07T09:36:14.373Z,88.08
2023-03-07T09:37:14.321Z,88.08
2023-03-07T09:38:14.303Z,88.02
2023-03-07T09:39:14.374Z,88.57
2023-03-07T09:40:14.260Z,87.92
2023-03-07T09:41:14.266Z,88.06
2023-03-07T09:42:14.146Z,87.81
2023-03-07T09:43:14.102Z,88.02
2023-03-07T09:44:14.069Z,88.32
2023-03-07T09:45:14.040Z,87.92
2023-03-07T09:46:14.039Z,87.50
2023-03-07T09:47:14.008Z,88.32
2023-03-07T09:48:13.943Z,88.32
2023-03-07T09:49:13.892Z,88.32
2023-03-07T09:50:13.865Z,88.06
2023-03-07T09:51:13.819Z,88.78
2023-03-07T09:52:13.850Z,88.32
2023-03-07T09:53:13.752Z,88.57
2023-03-07T09:54:13.720Z,88.26
2023-03-07T09:55:13.694Z,88.47
2023-03-07T09:56:13.675Z,88.37
2023-03-07T09:57:15.324Z,88.26
2023-03-07T09:58:13.640Z,87.89
2023-03-07T09:59:22.339Z,88.71
2023-03-07T10:00:13.517Z,88.51
2023-03-07T10:01:13.473Z,88.92
2023-03-07T10:02:13.489Z,89.23
2023-03-07T10:03:13.466Z,89.95
2023-03-07T10:04:13.380Z,89.03
2023-03-07T10:05:13.347Z,89.03
2023-03-07T10:06:13.292Z,89.54
2023-03-07T10:07:13.267Z,89.40
2023-03-07T10:08:13.284Z,89.40
2023-03-07T10:09:13.197Z,89.19
2023-03-07T10:10:22.329Z,88.89
2023-03-07T10:11:13.160Z,89.61
2023-03-07T10:12:13.084Z,88.89
2023-03-07T10:13:13.103Z,88.37
2023-03-07T10:14:13.146Z,88.12
2023-03-07T10:15:12.985Z,88.06
2023-03-07T10:16:12.981Z,88.53
2023-03-07T10:17:12.949Z,88.53
2023-03-07T10:18:12.951Z,88.12
2023-03-07T10:19:12.840Z,88.26
2023-03-07T10:20:12.920Z,89.29
2023-03-07T10:21:12.779Z,88.68
2023-03-07T10:22:12.733Z,88.68
2023-03-07T10:23:12.690Z,89.13
2023-03-07T10:24:12.658Z,89.86
2023-03-07T10:25:12.636Z,90.37
2023-03-07T10:26:13.333Z,90.53
2023-03-07T10:27:12.571Z,90.53
2023-03-07T10:28:12.523Z,89.92
2023-03-07T10:29:12.476Z,90.33
2023-03-07T10:30:12.441Z,90.47
2023-03-07T10:31:12.409Z,91.20
2023-03-07T10:32:12.526Z,90.78
2023-03-07T10:33:12.354Z,90.68
2023-03-07T10:34:17.601Z,91.13
2023-03-07T10:35:12.277Z,91.75
2023-03-07T10:36:12.233Z,92.54
2023-03-07T10:37:12.181Z,92.48
2023-03-07T10:38:12.238Z,92.38
2023-03-07T10:39:12.131Z,91.82
2023-03-07T10:40:12.084Z,92.48
2023-03-07T10:41:12.049Z,92.38
2023-03-07T10:42:12.010Z,92.42
2023-03-07T10:43:11.978Z,92.42
2023-03-07T10:44:11.987Z,93.24
2023-03-07T10:45:12.646Z,92.42
2023-03-07T10:46:23.810Z,93.35
2023-03-07T10:47:11.828Z,92.93
2023-03-07T10:48:11.825Z,92.00
2023-03-07T10:49:11.761Z,92.00
2023-03-07T10:50:11.784Z,92.21
2023-03-07T10:51:11.690Z,92.00
2023-03-07T10:52:11.655Z,92.32
2023-03-07T10:53:11.619Z,92.77
2023-03-07T10:54:11.589Z,93.80
2023-03-07T10:55:11.540Z,94.01
2023-03-07T10:56:11.559Z,93.80
2023-03-07T10:57:11.475Z,93.04
2023-03-07T10:58:11.436Z,92.72
2023-03-07T10:59:11.414Z,92.58
2023-03-07T11:00:11.373Z,92.79
2023-03-07T11:01:11.365Z,93.41
2023-03-07T11:02:11.349Z,92.27
2023-03-07T11:03:11.252Z,91.86
2023-03-07T11:04:11.224Z,92.17
2023-03-07T11:05:11.221Z,91.65
2023-03-07T11:06:11.146Z,90.72
2023-03-07T11:07:11.107Z,89.48
2023-03-07T11:08:11.115Z,89.89
2023-03-07T11:09:11.045Z,89.89
2023-03-07T11:10:11.007Z,88.04
2023-03-07T11:11:10.960Z,87.93
2023-03-07T11:12:11.006Z,87.99
2023-03-07T11:13:10.959Z,88.71
2023-03-07T11:14:13.364Z,88.65
2023-03-07T11:15:10.985Z,88.61
2023-03-07T11:16:11.652Z,88.41
2023-03-07T11:17:10.749Z,88.10
2023-03-07T11:18:10.731Z,88.20
2023-03-07T11:19:10.681Z,87.54
2023-03-07T11:20:10.695Z,86.20
2023-03-07T11:21:10.604Z,86.61
2023-03-07T11:22:10.567Z,85.89
2023-03-07T11:23:11.332Z,85.47
2023-03-07T11:24:10.663Z,86.10
2023-03-07T11:25:10.548Z,85.99
2023-03-07T11:26:10.577Z,85.47
2023-03-07T11:27:10.395Z,85.47
2023-03-07T11:28:10.361Z,85.27
2023-03-07T11:29:10.335Z,84.59
2023-03-07T11:30:10.276Z,83.97
2023-03-07T11:31:10.375Z,84.23
2023-03-07T11:32:10.238Z,85.31
2023-03-07T11:33:10.225Z,85.17
2023-03-07T11:34:10.143Z,85.06
2023-03-07T11:35:10.118Z,85.17
2023-03-07T11:36:10.101Z,85.17
2023-03-07T11:37:10.102Z,85.17
2023-03-07T11:38:10.011Z,84.55
2023-03-07T11:39:09.964Z,84.89
2023-03-07T11:40:09.922Z,83.76
2023-03-07T11:41:10.718Z,84.89
2023-03-07T11:42:09.857Z,84.89
2023-03-07T11:43:09.873Z,83.86
2023-03-07T11:44:09.802Z,83.25
2023-03-07T11:45:09.818Z,83.80
2023-03-07T11:46:09.737Z,83.70
2023-03-07T11:47:09.688Z,82.87
2023-03-07T11:48:09.646Z,83.90
2023-03-07T11:49:09.668Z,83.49
2023-03-07T11:50:09.598Z,84.00
2023-03-07T11:51:09.538Z,83.94
2023-03-07T11:52:09.498Z,84.94
2023-03-07T11:53:09.469Z,84.87
2023-03-07T11:54:09.429Z,84.56
2023-03-07T11:55:09.493Z,84.15
2023-03-07T11:56:09.386Z,84.36
2023-03-07T11:57:09.337Z,85.49
2023-03-07T11:58:09.289Z,85.28
2023-03-07T11:59:09.251Z,85.18
2023-03-07T12:00:09.222Z,85.60
2023-03-07T12:01:11.588Z,85.74
2023-03-07T12:02:09.160Z,87.08
2023-03-07T12:03:09.154Z,87.02
2023-03-07T12:04:09.087Z,86.71
2023-03-07T12:05:09.040Z,87.23
2023-03-07T12:06:09.058Z,87.57
2023-03-07T12:07:09.021Z,87.16
2023-03-07T12:08:08.953Z,86.96
2023-03-07T12:09:08.913Z,87.06
2023-03-07T12:10:08.869Z,87.27
2023-03-07T12:11:08.825Z,87.68
2023-03-07T12:12:08.808Z,87.99
2023-03-07T12:13:08.826Z,88.30
2023-03-07T12:14:08.736Z,88.40
2023-03-07T12:15:08.679Z,88.30
2023-03-07T12:16:08.701Z,88.51
2023-03-07T12:17:08.615Z,88.92
2023-03-07T12:18:08.577Z,88.40
2023-03-07T12:19:08.598Z,89.44
2023-03-07T12:20:08.678Z,89.58
2023-03-07T12:21:08.469Z,89.34
2023-03-07T12:22:08.436Z,89.54
2023-03-07T12:23:08.415Z,89.44
2023-03-07T12:24:08.453Z,89.38
2023-03-07T12:25:08.374Z,90.06
2023-03-07T12:26:08.301Z,90.06
2023-03-07T12:27:08.253Z,90.06
2023-03-07T12:28:08.208Z,89.86
2023-03-07T12:29:08.182Z,90.41
2023-03-07T12:30:08.897Z,90.72
2023-03-07T12:31:08.316Z,91.24
2023-03-07T12:32:08.179Z,90.93
2023-03-07T12:33:08.176Z,91.24
2023-03-07T12:34:07.999Z,90.99
2023-03-07T12:35:07.971Z,92.34
2023-03-07T12:36:08.013Z,91.35
2023-03-07T12:37:07.940Z,91.45
2023-03-07T12:38:07.854Z,91.14
2023-03-07T12:39:07.820Z,92.18
2023-03-07T12:40:07.783Z,92.28
2023-03-07T12:41:07.765Z,92.07
2023-03-07T12:42:07.723Z,92.38
2023-03-07T12:43:07.752Z,92.34
2023-03-07T12:44:07.649Z,91.97
2023-03-07T12:45:07.614Z,92.18
2023-03-07T12:46:07.660Z,92.59
2023-03-07T12:47:07.522Z,92.59
2023-03-07T12:48:07.506Z,93.00
2023-03-07T12:49:07.528Z,92.94
2023-03-07T12:50:07.427Z,93.15
2023-03-07T12:51:07.395Z,93.25
2023-03-07T12:52:07.375Z,93.77